createdAt,value
2024-02-27T00:00:26.998Z,5.90
2024-02-27T00:02:53.759Z,5.90
2024-02-27T00:05:20.624Z,5.90
2024-02-27T00:07:47.332Z,5.90
2024-02-27T00:10:15.447Z,5.90
2024-02-27T00:12:42.479Z,5.90
2024-02-27T00:15:09.674Z,5.90
2024-02-27T00:17:36.511Z,5.80
2024-02-27T00:20:03.798Z,5.70
2024-02-27T00:22:30.584Z,5.60
2024-02-27T00:24:57.427Z,5.70
2024-02-27T00:27:24.217Z,5.70
2024-02-27T00:29:50.871Z,5.60
2024-02-27T00:32:17.540Z,5.50
2024-02-27T00:34:44.353Z,5.40
2024-02-27T00:37:11.184Z,5.30
2024-02-27T00:39:37.996Z,5.30
2024-02-27T00:42:05.759Z,5.30
2024-02-27T00:44:32.849Z,5.30
2024-02-27T00:46:59.592Z,5.40
2024-02-27T00:49:26.342Z,5.40
2024-02-27T00:51:53.196Z,5.40
2024-02-27T00:54:19.977Z,5.40
2024-02-27T00:56:46.692Z,5.40
2024-02-27T00:59:13.458Z,5.40
2024-02-27T01:01:40.335Z,5.40
2024-02-27T01:04:07.098Z,5.40
2024-02-27T01:06:34.430Z,5.40
2024-02-27T01:09:01.233Z,5.40
2024-02-27T01:11:28.080Z,5.40
2024-02-27T01:13:54.870Z,5.50
2024-02-27T01:16:23.683Z,5.50
2024-02-27T01:18:50.648Z,5.50
2024-02-27T01:21:18.365Z,5.50
2024-02-27T01:23:45.118Z,5.50
2024-02-27T01:26:13.154Z,5.50
2024-02-27T01:28:40.097Z,5.50
2024-02-27T01:31:07.186Z,5.50
2024-02-27T01:33:34.193Z,5.60
2024-02-27T01:36:01.154Z,5.60
2024-02-27T01:38:27.886Z,5.50
2024-02-27T01:40:54.640Z,5.60
2024-02-27T01:43:25.090Z,5.50
2024-02-27T01:46:00.601Z,5.50
2024-02-27T01:48:28.412Z,5.40
2024-02-27T01:50:55.261Z,5.50
2024-02-27T01:53:22.009Z,5.40
2024-02-27T01:55:49.152Z,5.40
2024-02-27T01:58:15.849Z,5.40
2024-02-27T02:00:43.400Z,5.50
2024-02-27T02:03:10.158Z,5.50
2024-02-27T02:05:36.928Z,5.40
2024-02-27T02:08:04.200Z,5.40
2024-02-27T02:10:30.937Z,5.50
2024-02-27T02:12:57.914Z,5.40
2024-02-27T02:15:25.118Z,5.40
2024-02-27T02:17:53.293Z,5.50
2024-02-27T02:20:20.094Z,5.40
2024-02-27T02:22:46.954Z,5.40
2024-02-27T02:25:15.220Z,5.30
2024-02-27T02:27:46.315Z,5.30
2024-02-27T02:30:15.324Z,5.30
2024-02-27T02:32:52.274Z,5.30
2024-02-27T02:35:19.285Z,5.20
2024-02-27T02:37:49.593Z,5.10
2024-02-27T02:40:26.934Z,5.10
2024-02-27T02:42:53.667Z,5.10
2024-02-27T02:45:20.653Z,5.10
2024-02-27T02:47:47.443Z,5.10
2024-02-27T02:50:15.071Z,5.10
2024-02-27T02:52:42.005Z,5.00
2024-02-27T02:55:09.494Z,4.90
2024-02-27T02:57:36.334Z,4.90
2024-02-27T03:00:05.252Z,4.90
2024-02-27T03:02:32.094Z,4.90
2024-02-27T03:04:59.182Z,4.90
2024-02-27T03:07:28.949Z,4.90
2024-02-27T03:09:55.706Z,5.00
2024-02-27T03:12:23.535Z,5.00
2024-02-27T03:14:50.486Z,5.00
2024-02-27T03:17:17.790Z,5.00
2024-02-27T03:19:44.766Z,5.00
2024-02-27T03:22:11.838Z,5.00
2024-02-27T03:24:39.940Z,5.00
2024-02-27T03:27:07.308Z,5.10
2024-02-27T03:29:34.054Z,5.10
2024-02-27T03:32:00.749Z,5.10
2024-02-27T03:34:27.700Z,5.10
2024-02-27T03:36:54.858Z,5.20
2024-02-27T03:39:21.855Z,5.20
2024-02-27T03:41:48.773Z,5.20
2024-02-27T03:44:15.659Z,5.20
2024-02-27T03:46:42.499Z,5.20
2024-02-27T03:49:09.368Z,5.20
2024-02-27T03:51:36.647Z,5.20
2024-02-27T03:54:03.995Z,5.20
2024-02-27T03:56:31.314Z,5.20
2024-02-27T03:58:57.974Z,5.20
2024-02-27T04:01:24.916Z,5.20
2024-02-27T04:03:51.689Z,5.20
2024-02-27T04:06:18.461Z,5.10
2024-02-27T04:08:45.298Z,5.10
2024-02-27T04:11:12.454Z,5.10
2024-02-27T04:13:39.524Z,5.10
2024-02-27T04:16:06.522Z,4.90
2024-02-27T04:18:33.538Z,4.90
2024-02-27T04:21:00.725Z,4.90
2024-02-27T04:23:27.680Z,4.90
2024-02-27T04:25:54.378Z,4.90
2024-02-27T04:28:21.056Z,4.80
2024-02-27T04:30:47.728Z,4.80
2024-02-27T04:33:14.931Z,4.80
2024-02-27T04:35:42.097Z,4.70
2024-02-27T04:38:09.708Z,4.70
2024-02-27T04:40:36.444Z,4.80
2024-02-27T04:43:03.404Z,4.70
2024-02-27T04:45:30.174Z,4.70
2024-02-27T04:47:57.943Z,4.70
2024-02-27T04:50:24.872Z,4.60
2024-02-27T04:52:51.608Z,4.60
2024-02-27T04:55:18.278Z,4.60
2024-02-27T04:57:45.174Z,4.60
2024-02-27T05:00:12.643Z,4.60
2024-02-27T05:02:39.496Z,4.50
2024-02-27T05:05:06.821Z,4.50
2024-02-27T05:07:33.526Z,4.50
2024-02-27T05:10:00.550Z,4.50
2024-02-27T05:12:27.226Z,4.50
2024-02-27T05:14:54.009Z,4.50
2024-02-27T05:17:20.740Z,4.50
2024-02-27T05:19:47.576Z,4.50
2024-02-27T05:22:14.351Z,4.50
2024-02-27T05:24:41.124Z,4.50
2024-02-27T05:27:07.921Z,4.60
2024-02-27T05:29:34.976Z,4.50
2024-02-27T05:32:01.746Z,4.50
2024-02-27T05:34:28.568Z,4.50
2024-02-27T05:36:55.410Z,4.50
2024-02-27T05:39:22.198Z,4.50
2024-02-27T05:41:50.297Z,4.50
2024-02-27T05:44:17.516Z,4.50
2024-02-27T05:46:44.350Z,4.60
2024-02-27T05:49:11.278Z,4.60
2024-02-27T05:51:41.087Z,4.50
2024-02-27T05:54:07.999Z,4.50
2024-02-27T05:56:34.918Z,4.50
2024-02-27T05:59:01.713Z,4.50
2024-02-27T06:01:28.556Z,4.50
2024-02-27T06:03:55.626Z,4.50
2024-02-27T06:06:22.422Z,4.50
2024-02-27T06:08:49.289Z,4.50
2024-02-27T06:11:16.165Z,4.50
2024-02-27T06:13:44.685Z,4.40
2024-02-27T06:16:12.009Z,4.40
2024-02-27T06:18:43.268Z,4.40
2024-02-27T06:21:29.165Z,4.40
2024-02-27T06:23:56.093Z,4.40
2024-02-27T06:26:22.997Z,4.40
2024-02-27T06:28:49.825Z,4.40
2024-02-27T06:31:16.655Z,4.30
2024-02-27T06:33:43.693Z,4.30
2024-02-27T06:36:12.126Z,4.30
2024-02-27T06:38:39.080Z,4.30
2024-02-27T06:41:06.016Z,4.30
2024-02-27T06:43:33.797Z,4.30
2024-02-27T06:46:00.658Z,4.40
2024-02-27T06:48:30.193Z,4.50
2024-02-27T06:50:57.310Z,4.40
2024-02-27T06:53:24.596Z,4.50
2024-02-27T06:55:51.686Z,4.50
2024-02-27T06:58:18.536Z,4.50
2024-02-27T07:00:45.434Z,4.50
2024-02-27T07:03:13.654Z,4.50
2024-02-27T07:05:47.250Z,4.50
2024-02-27T07:08:20.630Z,4.50
2024-02-27T07:10:47.390Z,4.50
2024-02-27T07:13:14.257Z,4.50
2024-02-27T07:15:43.226Z,4.60
2024-02-27T07:18:10.458Z,4.70
2024-02-27T07:20:37.539Z,4.70
2024-02-27T07:23:04.652Z,4.70
2024-02-27T07:25:31.418Z,4.80
2024-02-27T07:27:58.240Z,4.80
2024-02-27T07:30:27.003Z,4.80
2024-02-27T07:32:54.659Z,4.90
2024-02-27T07:35:21.504Z,5.00
2024-02-27T07:37:49.125Z,5.10
2024-02-27T07:40:16.053Z,5.20
2024-02-27T07:42:42.860Z,5.30
2024-02-27T07:45:10.121Z,5.20
2024-02-27T07:47:36.839Z,5.20
2024-02-27T07:50:05.249Z,5.30
2024-02-27T07:52:32.120Z,5.40
2024-02-27T07:54:58.956Z,5.40
2024-02-27T07:57:26.336Z,5.50
2024-02-27T07:59:53.277Z,5.50
2024-02-27T08:02:20.228Z,5.50
2024-02-27T08:04:47.024Z,5.40
2024-02-27T08:07:14.008Z,5.50
2024-02-27T08:09:41.038Z,5.60
2024-02-27T08:12:08.037Z,5.60
2024-02-27T08:14:34.887Z,5.70
2024-02-27T08:17:02.681Z,5.70
2024-02-27T08:19:29.727Z,5.70
2024-02-27T08:22:04.631Z,5.80
2024-02-27T08:24:32.559Z,5.80
2024-02-27T08:27:04.301Z,5.80
2024-02-27T08:29:33.472Z,5.80
2024-02-27T08:32:00.193Z,5.80
2024-02-27T08:34:27.017Z,5.80
2024-02-27T08:36:54.122Z,5.80
2024-02-27T08:39:21.129Z,5.90
2024-02-27T08:41:48.129Z,6.00
2024-02-27T08:44:14.966Z,6.20
2024-02-27T08:46:44.193Z,6.50
2024-02-27T08:49:11.294Z,6.60
2024-02-27T08:51:38.319Z,6.80
2024-02-27T08:54:05.318Z,7.20
2024-02-27T08:58:59.382Z,8.20
2024-02-27T09:01:26.079Z,8.20
2024-02-27T09:03:52.860Z,8.00
2024-02-27T09:06:19.875Z,7.40
2024-02-27T09:08:46.675Z,7.30
2024-02-27T09:11:14.139Z,7.10
2024-02-27T09:13:40.962Z,6.90
2024-02-27T09:16:08.180Z,7.20
2024-02-27T09:18:36.435Z,7.30
2024-02-27T09:21:03.744Z,7.50
2024-02-27T09:23:30.669Z,7.70
2024-02-27T09:25:57.502Z,7.60
2024-02-27T09:28:24.617Z,7.70
2024-02-27T09:30:51.459Z,7.50
2024-02-27T09:33:18.271Z,7.60
2024-02-27T09:35:46.303Z,7.70
2024-02-27T09:38:13.056Z,7.30
2024-02-27T09:40:42.496Z,7.40
2024-02-27T09:43:15.275Z,7.60
2024-02-27T09:45:42.630Z,7.60
2024-02-27T09:48:09.638Z,7.70
2024-02-27T09:50:36.522Z,7.80
2024-02-27T09:53:04.224Z,7.80
2024-02-27T09:55:31.111Z,7.90
2024-02-27T09:57:59.678Z,7.90
2024-02-27T10:00:26.676Z,8.10
2024-02-27T10:02:53.562Z,8.10
2024-02-27T10:05:23.109Z,8.10
2024-02-27T10:07:51.284Z,8.20
2024-02-27T10:10:18.933Z,8.20
2024-02-27T10:12:45.907Z,8.30
2024-02-27T10:15:13.080Z,8.30
2024-02-27T10:17:40.701Z,8.30
2024-02-27T10:20:11.966Z,8.50
2024-02-27T10:22:43.266Z,8.60
2024-02-27T10:25:12.315Z,8.60
2024-02-27T10:27:42.701Z,8.80
2024-02-27T10:30:10.668Z,9.00
2024-02-27T10:32:37.631Z,9.10
2024-02-27T10:35:05.235Z,9.20
2024-02-27T10:37:37.150Z,9.10
2024-02-27T10:40:08.989Z,9.20
2024-02-27T10:42:38.535Z,9.20
2024-02-27T10:45:06.358Z,9.20
2024-02-27T10:47:34.024Z,9.20
2024-02-27T10:50:03.517Z,9.50
2024-02-27T10:52:31.495Z,9.50
2024-02-27T10:55:00.210Z,9.20
2024-02-27T10:57:28.851Z,9.20
2024-02-27T10:59:55.845Z,9.20
2024-02-27T11:02:22.924Z,9.20
2024-02-27T11:04:52.414Z,9.30
2024-02-27T11:07:19.450Z,9.30
2024-02-27T11:09:46.840Z,9.30
2024-02-27T11:12:18.162Z,9.20
2024-02-27T11:14:46.537Z,9.30
2024-02-27T11:17:21.400Z,9.30
2024-02-27T11:19:50.514Z,9.30
2024-02-27T11:22:19.687Z,9.10
2024-02-27T11:24:47.494Z,9.00
2024-02-27T11:27:22.454Z,9.00
2024-02-27T11:29:53.235Z,9.10
2024-02-27T11:32:20.744Z,9.10
2024-02-27T11:34:48.742Z,9.20
2024-02-27T11:37:18.181Z,9.30
2024-02-27T11:39:45.133Z,9.30
2024-02-27T11:42:28.034Z,9.30
2024-02-27T11:45:04.320Z,9.40
2024-02-27T11:47:37.126Z,9.40
2024-02-27T11:50:04.923Z,9.40
2024-02-27T11:52:35.071Z,9.40
2024-02-27T11:55:09.492Z,9.50
2024-02-27T11:57:37.029Z,9.60
2024-02-27T12:00:09.108Z,9.60
2024-02-27T12:02:37.095Z,9.70
2024-02-27T12:05:07.435Z,9.70
2024-02-27T12:07:35.218Z,9.70
2024-02-27T12:10:12.733Z,9.90
2024-02-27T12:12:42.488Z,9.90
2024-02-27T12:15:10.815Z,9.90
2024-02-27T12:17:38.347Z,10.10
2024-02-27T12:20:12.519Z,10.20
2024-02-27T12:22:40.941Z,10.40
2024-02-27T12:25:08.213Z,10.40
2024-02-27T12:27:36.752Z,10.40
2024-02-27T12:30:11.541Z,10.60
2024-02-27T12:32:45.416Z,10.70
2024-02-27T12:35:13.947Z,10.90
2024-02-27T12:37:48.384Z,10.80
2024-02-27T12:40:16.927Z,10.80
2024-02-27T12:42:45.808Z,10.80
2024-02-27T12:45:14.226Z,10.80
2024-02-27T12:47:42.748Z,10.90
2024-02-27T12:50:11.160Z,11.00
2024-02-27T12:52:38.743Z,10.90
2024-02-27T12:55:06.882Z,10.90
2024-02-27T12:57:33.711Z,10.70
2024-02-27T13:00:01.678Z,10.80
2024-02-27T13:02:28.998Z,10.90
2024-02-27T13:04:57.194Z,10.90
2024-02-27T13:07:28.266Z,11.10
2024-02-27T13:09:55.381Z,11.30
2024-02-27T13:12:22.281Z,11.30
2024-02-27T13:14:49.191Z,11.50
2024-02-27T13:17:15.887Z,11.80
2024-02-27T13:19:42.657Z,11.80
2024-02-27T13:22:09.407Z,12.00
2024-02-27T13:24:36.145Z,12.10
2024-02-27T13:27:03.056Z,11.90
2024-02-27T13:29:29.952Z,11.90
2024-02-27T13:31:56.684Z,12.00
2024-02-27T13:34:24.053Z,12.10
2024-02-27T13:36:51.023Z,12.10
2024-02-27T13:39:21.448Z,11.90
2024-02-27T13:41:48.465Z,11.80
2024-02-27T13:44:17.560Z,11.60
2024-02-27T13:46:44.785Z,11.70
2024-02-27T13:49:20.052Z,12.00
2024-02-27T13:51:47.129Z,12.80
2024-02-27T13:54:14.015Z,13.30
2024-02-27T13:59:07.898Z,13.80
2024-02-27T14:01:34.879Z,14.00
2024-02-27T14:04:01.881Z,14.10
2024-02-27T14:06:28.775Z,14.20
2024-02-27T14:08:55.657Z,14.30
2024-02-27T14:11:22.481Z,14.70
2024-02-27T14:13:49.235Z,14.70
2024-02-27T14:16:15.971Z,14.70
2024-02-27T14:18:42.873Z,14.70
2024-02-27T14:21:09.763Z,14.60
2024-02-27T14:23:36.817Z,14.60
2024-02-27T14:26:03.715Z,14.80
2024-02-27T14:28:30.438Z,15.30
2024-02-27T14:30:57.360Z,15.90
2024-02-27T14:33:24.530Z,15.70
2024-02-27T14:35:51.438Z,15.50
2024-02-27T14:38:18.768Z,15.60
2024-02-27T14:40:45.610Z,15.30
2024-02-27T14:43:12.401Z,15.30
2024-02-27T14:45:39.290Z,15.50
2024-02-27T14:48:06.755Z,15.30
2024-02-27T14:50:33.768Z,15.00
2024-02-27T14:53:00.846Z,14.80
2024-02-27T14:55:27.824Z,14.50
2024-02-27T14:57:54.676Z,14.30
2024-02-27T15:00:21.694Z,14.10
2024-02-27T15:02:48.714Z,13.90
2024-02-27T15:05:17.649Z,14.00
2024-02-27T15:07:44.727Z,14.10
2024-02-27T15:10:11.702Z,14.20
2024-02-27T15:12:38.536Z,14.40
2024-02-27T15:15:06.083Z,14.80
2024-02-27T15:17:32.963Z,14.90
2024-02-27T15:19:59.741Z,15.20
2024-02-27T15:22:26.742Z,15.60
2024-02-27T15:24:53.543Z,16.00
2024-02-27T15:27:20.471Z,15.60
2024-02-27T15:29:47.215Z,15.20
2024-02-27T15:32:14.086Z,14.90
2024-02-27T15:34:40.918Z,14.80
2024-02-27T15:37:07.893Z,14.90
2024-02-27T15:39:34.725Z,15.20
2024-02-27T15:42:07.178Z,15.50
2024-02-27T15:44:35.744Z,15.80
2024-02-27T15:47:02.632Z,15.70
2024-02-27T15:49:29.631Z,15.60
2024-02-27T15:51:56.704Z,15.70
2024-02-27T15:54:23.676Z,15.50
2024-02-27T15:56:50.394Z,15.30
2024-02-27T15:59:17.154Z,14.90
2024-02-27T16:01:43.970Z,14.80
2024-02-27T16:04:48.333Z,14.20
2024-02-27T16:07:23.239Z,13.70
2024-02-27T16:09:50.087Z,13.30
2024-02-27T16:12:21.916Z,13.10
2024-02-27T16:14:51.951Z,12.80
2024-02-27T16:17:18.771Z,12.50
2024-02-27T16:19:45.999Z,12.30
2024-02-27T16:22:12.983Z,12.10
2024-02-27T16:24:39.845Z,11.90
2024-02-27T16:27:06.818Z,11.80
2024-02-27T16:29:33.652Z,11.80
2024-02-27T16:32:01.411Z,11.70
2024-02-27T16:34:28.965Z,11.50
2024-02-27T16:36:58.756Z,11.40
2024-02-27T16:39:25.742Z,11.20
2024-02-27T16:41:52.854Z,11.00
2024-02-27T16:44:19.654Z,10.80
2024-02-27T16:46:47.424Z,10.70
2024-02-27T16:49:14.196Z,10.60
2024-02-27T16:51:41.209Z,10.50
2024-02-27T16:54:09.049Z,10.40
2024-02-27T16:56:39.388Z,10.20
2024-02-27T16:59:06.517Z,10.20
2024-02-27T17:01:33.212Z,10.10
2024-02-27T17:04:00.158Z,10.00
2024-02-27T17:06:27.928Z,9.90
2024-02-27T17:08:55.004Z,9.80
2024-02-27T17:11:21.829Z,9.80
2024-02-27T17:13:48.637Z,9.80
2024-02-27T17:16:15.357Z,9.70
2024-02-27T17:18:42.345Z,9.60
2024-02-27T17:21:09.266Z,9.60
2024-02-27T17:23:35.988Z,9.50
2024-02-27T17:26:04.760Z,9.40
2024-02-27T17:28:31.624Z,9.30
2024-02-27T17:30:58.474Z,9.30
2024-02-27T17:33:25.589Z,9.20
2024-02-27T17:35:52.586Z,9.20
2024-02-27T17:38:19.394Z,9.10
2024-02-27T17:40:46.214Z,9.10
2024-02-27T17:43:12.940Z,9.10
2024-02-27T17:45:39.705Z,9.00
2024-02-27T17:48:08.395Z,9.00
2024-02-27T17:50:35.527Z,8.90
2024-02-27T17:53:02.333Z,8.90
2024-02-27T17:55:29.024Z,8.90
2024-02-27T17:57:55.974Z,8.90
2024-02-27T18:00:22.990Z,8.80
2024-02-27T18:02:49.855Z,8.80
2024-02-27T18:05:17.135Z,8.70
2024-02-27T18:07:43.992Z,8.50
2024-02-27T18:10:11.100Z,8.50
2024-02-27T18:12:37.837Z,8.40
2024-02-27T18:15:05.768Z,8.30
2024-02-27T18:17:32.723Z,8.30
2024-02-27T18:19:59.619Z,8.20
2024-02-27T18:22:26.341Z,8.20
2024-02-27T18:24:53.387Z,8.10
2024-02-27T18:27:21.756Z,8.00
2024-02-27T18:29:48.765Z,8.00
2024-02-27T18:32:15.466Z,8.00
2024-02-27T18:34:42.369Z,8.00
2024-02-27T18:37:09.123Z,7.90
2024-02-27T18:39:38.970Z,7.90
2024-02-27T18:42:06.138Z,7.90
2024-02-27T18:44:32.834Z,7.80
2024-02-27T18:46:59.641Z,7.80
2024-02-27T18:49:26.618Z,7.80
2024-02-27T18:51:54.497Z,7.70
2024-02-27T18:54:21.359Z,7.70
2024-02-27T18:56:48.303Z,7.70
2024-02-27T18:59:14.980Z,7.70
2024-02-27T19:01:42.193Z,7.60
2024-02-27T19:04:08.935Z,7.50
2024-02-27T19:06:35.871Z,7.50
2024-02-27T19:09:03.130Z,7.40
2024-02-27T19:11:30.195Z,7.50
2024-02-27T19:13:57.124Z,7.40
2024-02-27T19:16:23.824Z,7.30
2024-02-27T19:18:50.629Z,7.30
2024-02-27T19:21:17.402Z,7.10
2024-02-27T19:23:44.220Z,7.10
2024-02-27T19:26:11.163Z,7.10
2024-02-27T19:28:41.788Z,7.00
2024-02-27T19:31:13.952Z,7.00
2024-02-27T19:33:40.919Z,6.90
2024-02-27T19:36:09.873Z,6.90
2024-02-27T19:38:36.940Z,6.90
2024-02-27T19:41:08.135Z,6.80
2024-02-27T19:43:35.529Z,6.70
2024-02-27T19:46:02.336Z,6.60
2024-02-27T19:48:29.741Z,6.70
2024-02-27T19:50:57.948Z,6.60
2024-02-27T19:53:25.248Z,6.60
2024-02-27T19:55:52.021Z,6.50
2024-02-27T19:58:19.866Z,6.50
2024-02-27T20:00:48.730Z,6.40
2024-02-27T20:03:18.510Z,6.40
2024-02-27T20:05:45.821Z,6.30
2024-02-27T20:08:12.591Z,6.30
2024-02-27T20:10:40.686Z,6.20
2024-02-27T20:13:07.790Z,6.20
2024-02-27T20:15:35.275Z,6.10
2024-02-27T20:18:05.152Z,6.10
2024-02-27T20:20:32.251Z,6.10
2024-02-27T20:22:59.015Z,6.00
2024-02-27T20:25:25.929Z,5.90
2024-02-27T20:27:52.725Z,5.90
2024-02-27T20:30:24.879Z,5.90
2024-02-27T20:32:51.830Z,5.80
2024-02-27T20:35:18.717Z,5.70
2024-02-27T20:37:48.124Z,5.70
2024-02-27T20:40:18.334Z,5.70
2024-02-27T20:42:46.036Z,5.70
2024-02-27T20:45:13.700Z,5.70
2024-02-27T20:47:40.787Z,5.60
2024-02-27T20:50:11.212Z,5.60
2024-02-27T20:52:38.452Z,5.60
2024-02-27T20:55:08.409Z,5.60
2024-02-27T20:57:35.268Z,5.50
2024-02-27T21:00:03.091Z,5.50
2024-02-27T21:02:32.547Z,5.50
2024-02-27T21:04:59.771Z,5.30
2024-02-27T21:07:26.968Z,5.20
2024-02-27T21:09:54.051Z,5.10
2024-02-27T21:12:21.164Z,5.00
2024-02-27T21:14:47.976Z,5.00
2024-02-27T21:17:14.962Z,4.90
2024-02-27T21:19:41.784Z,4.90
2024-02-27T21:22:09.314Z,4.80
2024-02-27T21:24:36.312Z,4.80
2024-02-27T21:27:03.288Z,4.80
2024-02-27T21:29:30.170Z,4.70
2024-02-27T21:31:57.077Z,4.70
2024-02-27T21:34:23.941Z,4.60
2024-02-27T21:36:52.391Z,4.50
2024-02-27T21:39:19.330Z,4.50
2024-02-27T21:41:46.257Z,4.50
2024-02-27T21:44:13.448Z,4.50
2024-02-27T21:46:41.083Z,4.50
2024-02-27T21:49:07.845Z,4.50
2024-02-27T21:51:41.109Z,4.40
2024-02-27T21:54:10.949Z,4.40
2024-02-27T21:56:37.839Z,4.30
2024-02-27T21:59:04.580Z,4.30
2024-02-27T22:01:33.356Z,4.30
2024-02-27T22:04:04.040Z,4.30
2024-02-27T22:06:36.025Z,4.30
2024-02-27T22:09:03.413Z,4.40
2024-02-27T22:11:30.420Z,4.40
2024-02-27T22:13:57.301Z,4.40
2024-02-27T22:16:24.294Z,4.40
2024-02-27T22:18:51.109Z,4.40
2024-02-27T22:21:17.933Z,4.40
2024-02-27T22:23:44.678Z,4.30
2024-02-27T22:26:11.391Z,4.20
2024-02-27T22:28:38.141Z,4.20
2024-02-27T22:31:04.824Z,4.10
2024-02-27T22:33:31.630Z,4.10
2024-02-27T22:36:00.767Z,4.10
2024-02-27T22:38:27.437Z,4.10
2024-02-27T22:40:54.220Z,4.20
2024-02-27T22:43:20.894Z,4.20
2024-02-27T22:45:49.802Z,4.20
2024-02-27T22:48:16.799Z,4.20
2024-02-27T22:50:44.255Z,4.20
2024-02-27T22:53:11.060Z,4.10
2024-02-27T22:55:38.559Z,4.10
2024-02-27T22:58:05.766Z,4.00
2024-02-27T23:00:33.006Z,4.00
2024-02-27T23:02:59.918Z,3.90
2024-02-27T23:05:26.764Z,3.90
2024-02-27T23:07:56.378Z,3.80
2024-02-27T23:10:23.298Z,3.80
2024-02-27T23:12:50.655Z,3.70
2024-02-27T23:15:18.601Z,3.60
2024-02-27T23:17:46.772Z,3.50
2024-02-27T23:20:14.876Z,3.50
2024-02-27T23:22:42.437Z,3.50
2024-02-27T23:25:10.154Z,3.50
2024-02-27T23:27:37.206Z,3.40
2024-02-27T23:30:05.220Z,3.40
2024-02-27T23:32:32.860Z,3.40
2024-02-27T23:34:59.819Z,3.40
2024-02-27T23:37:27.091Z,3.30
2024-02-27T23:39:55.280Z,3.30
2024-02-27T23:42:22.283Z,3.30
2024-02-27T23:44:48.957Z,3.20
2024-02-27T23:47:17.797Z,3.20
2024-02-27T23:49:44.509Z,3.20
2024-02-27T23:52:11.195Z,3.10
2024-02-27T23:54:42.080Z,3.20
2024-02-27T23:57:09.137Z,3.20
2024-02-27T23:59:36.524Z,3.30
